Time;durP1;ratioP1;P1;durP2;ratioP2;P2;SDS_P1;SDS_P2;PMS_P1;PMS_P2;Temp;Humidity;BMP_temperature;BMP_pressure;BME280_temperature;BME280_humidity;BME280_pressure;Samples;Min_cycle;Max_cycle;Signal;HPM_P1;HPM_P2
2021/06/26 00:00:29;;;;;;;18.07;16.20;;;;;;;18.52;90.13;98995.75;124713;1093;64374;-77
2021/06/26 00:03:18;;;;;;;18.67;16.97;;;;;;;18.48;89.94;98998.91;124724;1092;64360;-77
2021/06/26 00:05:46;;;;;;;17.70;15.83;;;;;;;18.45;90.33;99010.86;125186;1093;64263;-77
2021/06/26 00:08:14;;;;;;;16.33;14.83;;;;;;;18.39;90.23;99012.31;125181;1093;64290;-77
2021/06/26 00:10:43;;;;;;;20.20;16.13;;;;;;;18.33;90.02;99012.09;124779;1093;64364;-77
2021/06/26 00:13:11;;;;;;;17.80;16.00;;;;;;;18.23;90.13;99024.78;125007;1093;64262;-77
2021/06/26 00:15:39;;;;;;;17.53;15.83;;;;;;;18.14;90.33;99019.30;124861;1093;64308;-77
2021/06/26 00:18:07;;;;;;;17.60;15.73;;;;;;;18.11;90.34;99019.57;124793;1093;64308;-78
2021/06/26 00:20:34;;;;;;;16.10;14.50;;;;;;;18.11;91.01;99024.13;124786;1093;64268;-77
2021/06/26 00:23:02;;;;;;;15.73;14.23;;;;;;;18.08;90.77;99027.97;124750;1093;64360;-78
2021/06/26 00:25:30;;;;;;;16.93;14.50;;;;;;;18.07;90.76;99034.38;124756;1093;64271;-77
2021/06/26 00:27:57;;;;;;;16.03;14.47;;;;;;;18.07;90.81;99028.98;124793;1093;64375;-78
2021/06/26 00:30:26;;;;;;;15.90;14.50;;;;;;;18.07;90.86;99033.53;124789;1092;64383;-77
2021/06/26 00:32:54;;;;;;;17.27;15.67;;;;;;;18.01;91.03;99040.38;124834;1093;64281;-76
2021/06/26 00:35:22;;;;;;;16.77;15.27;;;;;;;17.94;90.67;99042.80;124803;1093;64690;-78
2021/06/26 00:37:49;;;;;;;18.37;16.57;;;;;;;17.84;91.01;99046.53;124782;1093;64213;-77
2021/06/26 00:40:19;;;;;;;16.17;14.57;;;;;;;17.75;91.02;99050.94;124765;1093;64325;-78
2021/06/26 00:42:47;;;;;;;16.07;14.67;;;;;;;17.68;90.79;99050.66;124781;1093;64238;-78
2021/06/26 00:45:16;;;;;;;16.10;14.50;;;;;;;17.60;91.20;99052.40;124660;1093;64329;-78
2021/06/26 00:47:43;;;;;;;17.43;14.83;;;;;;;17.53;90.95;99062.90;124804;1093;64283;-78
2021/06/26 00:50:26;;;;;;;15.53;14.07;;;;;;;17.44;91.24;99059.23;124793;1093;64266;-78
2021/06/26 00:52:53;;;;;;;15.87;14.33;;;;;;;17.39;91.10;99061.52;124822;1093;64265;-78
2021/06/26 00:55:22;;;;;;;15.50;14.00;;;;;;;17.36;91.53;99063.66;124874;1093;64361;-78
2021/06/26 00:57:56;;;;;;;14.57;13.10;;;;;;;17.28;91.08;99065.22;124883;1093;64268;-78
2021/06/26 01:00:28;;;;;;;14.47;13.20;;;;;;;17.20;91.41;99057.02;124808;1093;64284;-78
2021/06/26 01:02:56;;;;;;;16.20;14.70;;;;;;;17.19;91.45;99057.14;124813;1093;64292;-78
2021/06/26 01:05:24;;;;;;;16.70;15.07;;;;;;;17.23;91.94;99056.72;124796;1093;64225;-78
2021/06/26 01:07:53;;;;;;;18.00;16.40;;;;;;;17.21;92.17;99060.55;124847;1093;64437;-78
2021/06/26 01:10:21;;;;;;;17.03;15.10;;;;;;;17.19;92.25;99062.53;124819;1093;64329;-78
2021/06/26 01:12:48;;;;;;;17.60;15.60;;;;;;;17.15;92.43;99061.13;124846;1093;64287;-78
2021/06/26 01:15:17;;;;;;;19.40;17.40;;;;;;;17.17;92.45;99059.13;124698;1093;64326;-78
2021/06/26 01:17:46;;;;;;;18.60;16.65;;;;;;;17.25;92.95;99064.67;124799;1093;64296;-78
2021/06/26 01:20:14;;;;;;;16.93;15.50;;;;;;;17.31;92.85;99058.70;124773;1093;64271;-79
2021/06/26 01:22:47;;;;;;;18.33;16.63;;;;;;;17.32;92.75;99063.08;124928;1093;64194;-79
2021/06/26 01:25:17;;;;;;;17.63;15.93;;;;;;;17.33;93.02;99062.95;124845;1093;64447;-77
2021/06/26 01:27:45;;;;;;;18.53;16.73;;;;;;;17.34;92.82;99048.47;124865;1093;64194;-77
2021/06/26 01:30:13;;;;;;;18.57;16.77;;;;;;;17.36;92.72;99037.56;124877;1093;64290;-77
2021/06/26 01:32:41;;;;;;;19.30;17.33;;;;;;;17.38;93.18;99046.36;124820;1093;64373;-77
2021/06/26 01:35:09;;;;;;;18.63;16.70;;;;;;;17.44;92.80;99050.31;124770;1093;64271;-77
2021/06/26 01:37:40;;;;;;;18.77;17.03;;;;;;;17.47;92.89;99047.33;124847;1093;64287;-77
2021/06/26 01:40:14;;;;;;;18.87;17.13;;;;;;;17.53;92.70;99044.88;124868;1092;64390;-77
2021/06/26 01:42:41;;;;;;;20.67;17.97;;;;;;;17.55;92.79;99042.05;124901;1093;64338;-78
2021/06/26 01:45:09;;;;;;;19.07;17.43;;;;;;;17.55;93.13;99042.05;124801;1093;64384;-78
2021/06/26 01:47:36;;;;;;;19.03;17.27;;;;;;;17.60;92.95;99039.77;124698;1093;64361;-78
2021/06/26 01:50:05;;;;;;;18.40;16.70;;;;;;;17.67;93.31;99038.20;124665;1093;64275;-78
2021/06/26 01:52:32;;;;;;;18.50;16.83;;;;;;;17.70;92.96;99042.45;124735;1092;64217;-78
2021/06/26 01:54:59;;;;;;;20.33;18.53;;;;;;;17.73;92.94;99037.59;124727;1093;64275;-78
2021/06/26 01:57:27;;;;;;;19.90;17.93;;;;;;;17.75;92.76;99035.61;124762;1093;64287;-77
2021/06/26 01:59:54;;;;;;;19.47;17.63;;;;;;;17.75;92.64;99051.78;124741;1093;64287;-77
2021/06/26 02:02:21;;;;;;;19.43;17.37;;;;;;;17.78;92.97;99045.25;124724;1093;64280;-78
2021/06/26 02:04:49;;;;;;;20.23;18.27;;;;;;;17.83;92.99;99053.78;124654;1093;64370;-78
2021/06/26 02:07:16;;;;;;;19.60;17.77;;;;;;;17.85;93.16;99056.31;124704;1093;64328;-78
2021/06/26 02:09:43;;;;;;;21.37;19.23;;;;;;;17.85;92.70;99064.40;124739;1093;64415;-78
2021/06/26 02:12:11;;;;;;;21.75;19.85;;;;;;;17.83;92.82;99058.33;124698;1093;64290;-78
2021/06/26 02:14:38;;;;;;;22.10;20.10;;;;;;;17.83;92.72;99069.95;124690;1093;64271;-78
2021/06/26 02:17:05;;;;;;;22.10;20.20;;;;;;;17.80;92.33;99062.17;124728;1092;64344;-78
2021/06/26 02:19:33;;;;;;;21.43;19.63;;;;;;;17.82;92.79;99067.39;124675;1093;64379;-78
2021/06/26 02:22:01;;;;;;;21.17;18.87;;;;;;;17.81;92.86;99061.16;124703;1093;64274;-78
2021/06/26 02:24:28;;;;;;;22.93;20.60;;;;;;;17.85;93.03;99057.19;124704;1093;64344;-78
2021/06/26 02:26:55;;;;;;;21.37;19.43;;;;;;;17.83;92.46;99053.78;124684;1093;64210;-78
2021/06/26 02:29:23;;;;;;;21.97;19.97;;;;;;;17.84;92.89;99054.63;124723;1093;64287;-78
2021/06/26 02:31:50;;;;;;;21.90;19.97;;;;;;;17.85;92.74;99059.88;124662;1093;64344;-78
2021/06/26 02:34:19;;;;;;;21.33;19.13;;;;;;;17.86;92.74;99052.64;124710;1093;64271;-78
2021/06/26 02:36:47;;;;;;;23.23;20.97;;;;;;;17.87;92.92;99054.32;124725;1093;64328;-79
2021/06/26 02:39:14;;;;;;;22.13;20.23;;;;;;;17.86;92.97;99058.88;124697;1093;64367;-78
2021/06/26 02:41:42;;;;;;;23.00;20.90;;;;;;;17.86;92.56;99064.27;124669;1093;64337;-78
2021/06/26 02:44:09;;;;;;;22.07;19.77;;;;;;;17.88;92.72;99069.52;124647;1093;64229;-78
2021/06/26 02:46:36;;;;;;;21.20;19.33;;;;;;;17.89;92.50;99063.13;124681;1092;64325;-78
2021/06/26 02:49:04;;;;;;;21.90;19.70;;;;;;;17.85;92.41;99065.27;124710;1093;65751;-79
2021/06/26 02:51:31;;;;;;;21.13;19.30;;;;;;;17.84;92.27;99079.73;124677;1093;64265;-78
2021/06/26 02:53:59;;;;;;;22.23;20.20;;;;;;;17.78;92.43;99074.91;124673;1093;64297;-78
2021/06/26 02:56:26;;;;;;;20.67;18.83;;;;;;;17.71;92.22;99077.32;124800;1093;64435;-79
2021/06/26 02:58:53;;;;;;;21.93;19.93;;;;;;;17.64;92.76;99089.70;124768;1093;64364;-78
2021/06/26 03:01:20;;;;;;;22.30;20.27;;;;;;;17.57;92.57;99088.58;124802;1093;64255;-79
2021/06/26 03:03:47;;;;;;;21.50;19.50;;;;;;;17.53;93.01;99095.23;124777;1093;64223;-78
2021/06/26 03:06:15;;;;;;;22.40;20.35;;;;;;;17.52;93.02;99105.17;124693;1093;64223;-78
2021/06/26 03:08:42;;;;;;;21.60;19.60;;;;;;;17.52;93.49;99098.94;124659;1093;64283;-78
2021/06/26 03:11:09;;;;;;;22.30;20.27;;;;;;;17.48;92.96;99100.20;124802;1093;64268;-78
2021/06/26 03:13:36;;;;;;;21.17;19.17;;;;;;;17.47;93.47;99104.75;124772;1093;64271;-79
2021/06/26 03:16:04;;;;;;;22.60;19.70;;;;;;;17.43;93.01;99100.66;124797;1092;64762;-79
2021/06/26 03:18:31;;;;;;;21.53;19.60;;;;;;;17.40;93.11;99098.23;124666;1093;64217;-79
2021/06/26 03:20:59;;;;;;;21.17;19.07;;;;;;;17.38;93.45;99102.93;124743;1093;64313;-78
2021/06/26 03:23:26;;;;;;;22.00;19.90;;;;;;;17.40;93.27;99103.61;124814;1092;64408;-78
2021/06/26 03:25:53;;;;;;;20.20;18.20;;;;;;;17.43;93.51;99102.48;124796;1093;64294;-78
2021/06/26 03:28:20;;;;;;;20.33;18.47;;;;;;;17.48;93.30;99103.77;124800;1093;64293;-78
2021/06/26 03:30:48;;;;;;;20.77;18.87;;;;;;;17.48;93.23;99098.39;124783;1093;64187;-78
2021/06/26 03:33:15;;;;;;;20.00;18.20;;;;;;;17.49;93.65;99096.53;124680;1093;64287;-78
2021/06/26 03:35:42;;;;;;;20.30;18.20;;;;;;;17.51;93.27;99097.25;124793;1092;64402;-78
2021/06/26 03:38:10;;;;;;;20.97;18.87;;;;;;;17.51;93.34;99098.09;124674;1093;64255;-78
2021/06/26 03:40:37;;;;;;;21.70;19.67;;;;;;;17.54;93.33;99097.80;124687;1093;64336;-78
2021/06/26 03:43:04;;;;;;;21.13;19.00;;;;;;;17.61;93.01;99086.42;124804;1093;64287;-78
2021/06/26 03:45:32;;;;;;;22.10;19.80;;;;;;;17.64;93.34;99081.62;124751;1093;64480;-79
2021/06/26 03:47:59;;;;;;;22.63;20.17;;;;;;;17.69;92.88;99083.85;124660;1092;64310;-78
2021/06/26 03:50:26;;;;;;;21.47;19.47;;;;;;;17.72;92.83;99084.43;124762;1093;64245;-78
2021/06/26 03:52:53;;;;;;;23.07;20.87;;;;;;;17.75;93.06;99088.68;124800;1093;64284;-78
2021/06/26 03:55:20;;;;;;;22.13;20.17;;;;;;;17.81;92.96;99096.20;124783;1093;64271;-78
2021/06/26 03:57:48;;;;;;;23.37;21.00;;;;;;;17.86;92.72;99091.22;124776;1093;64268;-78
2021/06/26 04:00:16;;;;;;;22.25;20.05;;;;;;;17.92;92.59;99103.27;124688;1093;64319;-78
2021/06/26 04:02:43;;;;;;;23.10;20.90;;;;;;;17.94;92.44;99102.13;124679;1093;64306;-78
2021/06/26 04:05:11;;;;;;;21.53;19.53;;;;;;;17.94;92.52;99099.42;124792;1093;64271;-78
2021/06/26 04:07:38;;;;;;;22.70;20.40;;;;;;;17.94;91.98;99099.42;124684;1093;64302;-79
2021/06/26 04:10:07;;;;;;;20.97;19.07;;;;;;;17.94;91.92;99102.13;124644;1093;64363;-78
2021/06/26 04:12:35;;;;;;;22.20;20.10;;;;;;;18.04;92.39;99090.47;124713;1093;64244;-78
2021/06/26 04:15:02;;;;;;;22.13;20.03;;;;;;;18.21;92.19;99085.11;124796;1093;64294;-78
2021/06/26 04:17:30;;;;;;;21.13;19.30;;;;;;;18.35;91.55;99077.52;124775;1093;64274;-78
2021/06/26 04:19:57;;;;;;;21.57;19.37;;;;;;;18.45;91.25;99070.22;124779;1093;64380;-78
2021/06/26 04:22:24;;;;;;;21.60;19.60;;;;;;;18.57;90.67;99066.32;124757;1093;64191;-78
2021/06/26 04:24:52;;;;;;;23.10;20.60;;;;;;;18.73;90.19;99067.50;124818;1093;64241;-78
2021/06/26 04:27:19;;;;;;;24.47;22.27;;;;;;;18.89;89.74;99062.30;124689;1093;64287;-78
2021/06/26 04:29:46;;;;;;;25.57;23.17;;;;;;;19.08;88.94;99056.72;124785;1093;64188;-78
2021/06/26 04:32:15;;;;;;;22.83;20.83;;;;;;;19.51;88.21;99056.91;124781;1093;64290;-78
2021/06/26 04:34:42;;;;;;;21.60;19.43;;;;;;;20.68;85.94;99060.89;124808;1093;64426;-78
2021/06/26 04:37:09;;;;;;;20.37;18.43;;;;;;;21.54;83.62;99062.31;124777;1093;64326;-77
2021/06/26 04:39:36;;;;;;;19.73;17.83;;;;;;;21.92;82.16;99074.29;124815;1094;64268;-78
2021/06/26 04:42:04;;;;;;;19.73;18.10;;;;;;;22.59;80.39;99068.44;124677;1093;64658;-78
2021/06/26 04:44:31;;;;;;;18.63;17.03;;;;;;;23.17;78.92;99058.07;124814;1093;64308;-78
2021/06/26 04:46:58;;;;;;;20.63;18.73;;;;;;;23.14;78.44;99058.44;124797;1093;64248;-79
2021/06/26 04:49:25;;;;;;;20.07;18.37;;;;;;;22.67;78.66;99062.99;124724;1093;64332;-78
2021/06/26 04:51:52;;;;;;;19.97;18.37;;;;;;;22.40;78.62;99061.58;124802;1093;64191;-77
2021/06/26 04:54:20;;;;;;;21.00;19.07;;;;;;;22.34;78.62;99059.59;124770;1093;64268;-78
2021/06/26 04:56:47;;;;;;;21.23;19.50;;;;;;;22.24;78.22;99054.36;124823;1093;64264;-78
2021/06/26 04:59:15;;;;;;;22.17;20.27;;;;;;;22.06;78.66;99073.55;124772;1093;64424;-78
2021/06/26 05:01:42;;;;;;;21.00;19.13;;;;;;;21.90;79.20;99071.73;124801;1093;64367;-78
2021/06/26 05:04:09;;;;;;;20.67;18.57;;;;;;;21.87;79.22;99074.80;124782;1093;64288;-78
2021/06/26 05:06:37;;;;;;;19.93;18.17;;;;;;;21.95;78.54;99081.23;124828;1092;64306;-78
2021/06/26 05:09:05;;;;;;;21.37;19.57;;;;;;;21.92;78.16;99085.14;124776;1092;64322;-78
2021/06/26 05:11:32;;;;;;;22.35;20.35;;;;;;;21.76;78.75;99080.59;124761;1093;64325;-78
2021/06/26 05:14:00;;;;;;;21.13;19.33;;;;;;;21.68;78.81;99073.32;124783;1093;64335;-78
2021/06/26 05:16:27;;;;;;;20.67;18.67;;;;;;;21.51;78.31;99068.08;124776;1093;64284;-78
2021/06/26 05:18:54;;;;;;;20.10;18.20;;;;;;;21.35;78.53;99067.03;124788;1094;64275;-78
2021/06/26 05:21:22;;;;;;;19.33;17.53;;;;;;;21.26;78.65;99071.62;124781;1093;64363;-78
2021/06/26 05:23:50;;;;;;;20.17;18.47;;;;;;;21.05;79.13;99071.27;124760;1093;64255;-77
2021/06/26 05:26:17;;;;;;;20.23;18.53;;;;;;;20.96;79.79;99078.55;124825;1093;64419;-78
2021/06/26 05:28:44;;;;;;;20.60;18.80;;;;;;;20.85;79.75;99086.98;124765;1093;64245;-78
2021/06/26 05:31:12;;;;;;;22.07;20.17;;;;;;;20.70;79.87;99081.38;124803;1093;64294;-77
2021/06/26 05:33:40;;;;;;;22.20;20.33;;;;;;;20.63;79.87;99074.92;124779;1094;64388;-78
2021/06/26 05:36:07;;;;;;;22.37;20.37;;;;;;;20.66;80.06;99073.74;124786;1093;64413;-78
2021/06/26 05:38:35;;;;;;;21.83;19.90;;;;;;;20.61;79.82;99075.07;124677;1093;64453;-78
2021/06/26 05:41:02;;;;;;;21.93;19.90;;;;;;;20.63;80.34;99074.92;124782;1093;64297;-78
2021/06/26 05:43:29;;;;;;;23.85;21.75;;;;;;;20.67;79.96;99083.55;124808;1093;64390;-78
2021/06/26 05:45:57;;;;;;;23.97;21.77;;;;;;;20.66;80.15;99082.70;124766;1093;64287;-78
2021/06/26 05:48:24;;;;;;;23.43;21.13;;;;;;;20.68;80.68;99090.68;124756;1093;64291;-78
2021/06/26 05:50:52;;;;;;;23.33;21.40;;;;;;;20.66;80.28;99090.83;124639;1093;64413;-78
2021/06/26 05:53:19;;;;;;;24.90;22.47;;;;;;;20.56;80.62;99092.83;124721;1093;64277;-78
2021/06/26 05:56:05;;;;;;;22.83;20.53;;;;;;;20.56;81.15;99090.99;124723;1093;64245;-78
2021/06/26 05:58:36;;;;;;;23.20;21.20;;;;;;;20.61;80.88;99101.30;124692;1093;64285;-78
2021/06/26 06:01:06;;;;;;;23.57;21.23;;;;;;;20.58;81.30;99104.35;124698;1093;64309;-78
2021/06/26 06:03:33;;;;;;;23.57;21.40;;;;;;;20.52;81.18;99103.12;124655;1093;64297;-78
2021/06/26 06:06:01;;;;;;;28.63;26.20;;;;;;;20.47;81.15;99104.63;124676;1093;64226;-78
2021/06/26 06:08:28;;;;;;;31.43;28.83;;;;;;;20.31;80.74;99114.36;124691;1093;64375;-78
2021/06/26 06:10:55;;;;;;;30.20;27.40;;;;;;;20.32;81.55;99112.50;124701;1092;64731;-78
2021/06/26 06:13:22;;;;;;;29.23;26.60;;;;;;;20.29;81.54;99118.24;124651;1093;64404;-78
2021/06/26 06:15:50;;;;;;;31.10;28.35;;;;;;;20.23;81.92;99118.90;124679;1093;64430;-78
2021/06/26 06:18:20;;;;;;;28.57;26.00;;;;;;;20.19;81.94;99123.77;124738;1093;64287;-78
2021/06/26 06:20:48;;;;;;;28.23;25.70;;;;;;;20.16;81.84;99126.80;124755;1093;64271;-78
2021/06/26 06:23:16;;;;;;;30.03;27.53;;;;;;;20.09;81.68;99117.62;124716;1093;64274;-78
2021/06/26 06:25:43;;;;;;;32.20;29.50;;;;;;;20.06;81.86;99126.91;124690;1093;64316;-78
2021/06/26 06:28:11;;;;;;;32.00;29.50;;;;;;;20.08;82.21;99122.19;124633;1094;64358;-78
2021/06/26 06:30:38;;;;;;;32.30;29.60;;;;;;;20.13;82.64;99125.27;124636;1093;64275;-78
2021/06/26 06:33:06;;;;;;;30.60;28.00;;;;;;;20.16;82.33;99124.09;124697;1093;64319;-78
2021/06/26 06:35:34;;;;;;;30.85;28.10;;;;;;;20.20;81.97;99125.48;124679;1093;64293;-78
2021/06/26 06:38:02;;;;;;;29.57;27.07;;;;;;;20.30;82.32;99122.63;124650;1093;64283;-78
2021/06/26 06:40:29;;;;;;;27.43;25.07;;;;;;;20.32;81.51;99123.33;124654;1093;64338;-78
2021/06/26 06:42:57;;;;;;;29.00;26.43;;;;;;;20.36;82.05;99122.85;124697;1093;64275;-78
2021/06/26 06:45:25;;;;;;;30.57;28.00;;;;;;;20.54;82.28;99127.37;124732;1092;64229;-78
2021/06/26 06:47:52;;;;;;;30.60;28.00;;;;;;;20.68;81.72;99115.05;124739;1093;64271;-78
2021/06/26 06:50:19;;;;;;;30.20;27.70;;;;;;;20.70;81.68;99118.45;124739;1093;64380;-78
2021/06/26 06:52:46;;;;;;;30.23;27.63;;;;;;;20.71;81.87;99123.69;124793;1093;64268;-77
2021/06/26 06:55:14;;;;;;;29.63;27.13;;;;;;;20.74;81.35;99119.80;124781;1093;64293;-78
2021/06/26 06:57:41;;;;;;;27.77;25.47;;;;;;;20.78;81.63;99130.16;124790;1093;64309;-77
2021/06/26 07:00:11;;;;;;;28.27;25.77;;;;;;;20.86;81.40;99123.07;124803;1093;64239;-78
2021/06/26 07:02:39;;;;;;;27.48;25.15;;;;;;;20.97;81.24;99129.01;124687;1093;64289;-77
2021/06/26 07:05:08;;;;;;;28.47;26.17;;;;;;;20.98;80.76;99132.56;124670;1093;64271;-77
2021/06/26 07:07:35;;;;;;;29.37;26.97;;;;;;;21.00;80.97;99130.54;124716;1093;64271;-78
2021/06/26 07:10:05;;;;;;;29.77;27.27;;;;;;;21.04;80.70;99138.18;124689;1093;64367;-78
2021/06/26 07:12:33;;;;;;;28.37;25.93;;;;;;;21.07;80.64;99126.16;124703;1093;64191;-78
2021/06/26 07:15:00;;;;;;;28.50;25.73;;;;;;;21.13;80.56;99139.03;124637;1093;64379;-78
2021/06/26 07:17:27;;;;;;;26.00;23.90;;;;;;;21.25;80.63;99136.86;124795;1093;64268;-79
2021/06/26 07:19:55;;;;;;;29.47;26.90;;;;;;;21.34;80.05;99141.27;124666;1093;64255;-78
2021/06/26 07:22:22;;;;;;;28.30;25.87;;;;;;;21.32;79.74;99143.29;124786;1093;64191;-78
2021/06/26 07:24:49;;;;;;;30.60;27.80;;;;;;;21.35;79.99;99129.39;124704;1093;64300;-78
2021/06/26 07:27:16;;;;;;;29.23;26.83;;;;;;;21.36;79.85;99124.84;124755;1093;64290;-77
2021/06/26 07:29:44;;;;;;;29.37;26.80;;;;;;;21.35;79.80;99125.84;124806;1093;64367;-78
2021/06/26 07:32:11;;;;;;;29.03;26.60;;;;;;;21.37;79.73;99121.10;124787;1093;64287;-78
2021/06/26 07:34:38;;;;;;;28.40;26.00;;;;;;;21.42;79.69;99122.31;124794;1093;64188;-78
2021/06/26 07:37:06;;;;;;;29.17;26.83;;;;;;;21.55;79.65;99124.52;124808;1092;64288;-78
2021/06/26 07:39:34;;;;;;;27.37;25.17;;;;;;;21.68;78.95;99119.43;124754;1093;64213;-77
2021/06/26 07:42:01;;;;;;;28.05;25.85;;;;;;;21.81;78.81;99127.05;124725;1093;64245;-77
2021/06/26 07:44:28;;;;;;;28.20;25.97;;;;;;;21.94;78.51;99121.10;124626;1093;64367;-77
2021/06/26 07:46:56;;;;;;;28.70;26.30;;;;;;;22.08;78.23;99116.82;124667;1093;64798;-78
2021/06/26 07:49:23;;;;;;;27.90;25.57;;;;;;;22.29;78.27;99116.28;124786;1093;64386;-78
2021/06/26 07:51:50;;;;;;;26.63;24.47;;;;;;;22.50;77.84;99108.39;124653;1093;64329;-78
2021/06/26 07:54:17;;;;;;;26.90;24.60;;;;;;;22.61;76.06;99103.59;124826;1093;64406;-77
2021/06/26 07:56:46;;;;;;;26.40;24.30;;;;;;;22.70;76.82;99102.55;124805;1092;64268;-78
2021/06/26 07:59:13;;;;;;;27.37;25.07;;;;;;;22.91;76.15;99094.60;124719;1093;64287;-78
2021/06/26 08:01:41;;;;;;;28.67;26.20;;;;;;;23.22;75.49;99091.00;124767;1093;64276;-78
2021/06/26 08:04:09;;;;;;;26.37;24.43;;;;;;;23.48;74.87;99095.23;124685;1092;64309;-78
2021/06/26 08:06:36;;;;;;;28.77;26.27;;;;;;;23.83;74.80;99101.92;124805;1093;64672;-77
2021/06/26 08:09:05;;;;;;;25.57;23.70;;;;;;;24.23;74.25;99088.89;124729;1093;64332;-79
2021/06/26 08:11:32;;;;;;;27.37;25.10;;;;;;;24.61;73.08;99089.62;124878;1093;64332;-77
2021/06/26 08:14:00;;;;;;;25.97;24.00;;;;;;;25.00;72.74;99096.58;124850;1093;64288;-78
2021/06/26 08:20:12;;;;;;;23.00;21.07;;;;;;;25.48;70.36;99093.30;124803;1093;64282;-77
2021/06/26 08:22:40;;;;;;;23.67;21.77;;;;;;;25.24;68.79;99092.66;124722;1093;64264;-77
2021/06/26 08:25:08;;;;;;;23.73;21.80;;;;;;;25.17;69.56;99089.88;124697;1093;64279;-77
2021/06/26 08:27:35;;;;;;;21.13;19.63;;;;;;;25.38;69.89;99088.16;124661;1093;64251;-77
2021/06/26 08:30:03;;;;;;;20.97;19.37;;;;;;;25.60;69.21;99081.66;124685;1093;64287;-77
2021/06/26 08:32:31;;;;;;;20.10;18.53;;;;;;;25.70;68.73;99085.91;124665;1093;64309;-77
2021/06/26 08:34:58;;;;;;;20.87;19.20;;;;;;;25.86;68.37;99087.53;124797;1093;64289;-77
2021/06/26 08:37:25;;;;;;;20.83;19.13;;;;;;;25.96;68.74;99090.75;124801;1093;64212;-77
2021/06/26 08:39:52;;;;;;;18.47;17.17;;;;;;;26.15;67.98;99081.87;124809;1093;64367;-77
2021/06/26 08:42:20;;;;;;;17.63;16.23;;;;;;;26.19;67.37;99085.03;124642;1093;64393;-78
2021/06/26 08:44:58;;;;;;;19.60;18.00;;;;;;;26.04;66.38;99079.67;124852;1093;64271;-77
2021/06/26 08:47:27;;;;;;;21.90;20.20;;;;;;;25.92;67.13;99079.41;124735;1093;64267;-77
2021/06/26 08:49:55;;;;;;;21.17;19.57;;;;;;;25.91;67.12;99079.59;124854;1093;64249;-78
2021/06/26 08:52:22;;;;;;;20.37;18.70;;;;;;;25.81;65.80;99082.66;124712;1092;64340;-77
2021/06/26 08:54:55;;;;;;;20.10;18.60;;;;;;;25.77;66.48;99074.00;124760;1093;64290;-78
2021/06/26 08:57:33;;;;;;;16.30;15.07;;;;;;;25.84;65.84;99074.09;124699;1092;64299;-78
2021/06/26 09:00:03;;;;;;;18.60;17.07;;;;;;;25.80;65.44;99078.22;124723;1093;64296;-78
2021/06/26 09:02:30;;;;;;;18.80;17.30;;;;;;;25.78;65.70;99083.06;124661;1093;64271;-78
2021/06/26 09:04:59;;;;;;;18.37;16.97;;;;;;;25.74;66.29;99081.76;124804;1093;64287;-78
2021/06/26 09:07:31;;;;;;;18.33;16.87;;;;;;;25.62;64.60;99078.74;124769;1093;64291;-78
2021/06/26 09:10:17;;;;;;;16.53;15.13;;;;;;;25.27;66.03;99075.06;124806;1093;64287;-78
2021/06/26 09:12:47;;;;;;;17.97;16.57;;;;;;;24.88;66.14;99079.02;124718;1092;64194;-77
2021/06/26 09:15:28;;;;;;;18.80;17.50;;;;;;;24.53;66.56;99070.66;124829;1093;64314;-77
2021/06/26 09:17:56;;;;;;;16.53;15.23;;;;;;;24.29;66.56;99074.52;124647;1093;64287;-77
2021/06/26 09:20:35;;;;;;;18.03;16.63;;;;;;;23.84;66.92;99071.78;124752;1093;64424;-77
2021/06/26 09:23:04;;;;;;;16.63;15.43;;;;;;;23.52;67.65;99074.80;124864;1093;64244;-78
2021/06/26 09:25:35;;;;;;;16.53;15.13;;;;;;;23.11;67.83;99073.24;124824;1093;64246;-78
2021/06/26 09:28:06;;;;;;;20.83;19.23;;;;;;;22.74;68.42;99066.66;124842;1093;64650;-78
2021/06/26 09:30:42;;;;;;;17.00;15.45;;;;;;;22.50;69.28;99073.08;124691;1093;64279;-78
2021/06/26 09:33:18;;;;;;;16.77;15.47;;;;;;;22.34;70.04;99076.72;124656;1093;64425;-78
2021/06/26 09:35:47;;;;;;;17.53;15.93;;;;;;;22.27;70.45;99080.31;124750;1093;64340;-78
2021/06/26 09:38:15;;;;;;;18.33;16.80;;;;;;;22.21;70.95;99083.73;124819;1092;64299;-78
2021/06/26 09:40:42;;;;;;;19.20;17.60;;;;;;;22.11;71.27;99089.33;124809;1093;64312;-78
2021/06/26 09:43:24;;;;;;;18.33;16.83;;;;;;;22.07;71.67;99090.71;124676;1093;64271;-78
2021/06/26 09:46:02;;;;;;;20.23;18.43;;;;;;;22.01;72.04;99094.10;124783;1093;64284;-77
2021/06/26 09:48:29;;;;;;;20.50;18.90;;;;;;;21.81;72.31;99086.36;124667;1093;64284;-77
2021/06/26 09:50:56;;;;;;;20.93;19.23;;;;;;;21.70;72.65;99084.02;124766;1093;64245;-78
2021/06/26 09:53:24;;;;;;;21.47;19.47;;;;;;;21.59;72.79;99087.92;124791;1092;64247;-78
2021/06/26 09:55:53;;;;;;;21.70;19.70;;;;;;;21.59;73.56;99087.92;124806;1093;64239;-77
2021/06/26 09:58:21;;;;;;;22.27;20.47;;;;;;;21.56;73.56;99090.11;124760;1093;64505;-77
2021/06/26 10:00:48;;;;;;;23.27;21.30;;;;;;;21.46;73.82;99088.44;124785;1093;64422;-77
2021/06/26 10:03:19;;;;;;;20.20;18.50;;;;;;;21.40;74.08;99088.25;124812;1093;64242;-77
2021/06/26 10:05:47;;;;;;;13.07;11.97;;;;;;;21.39;72.79;99092.84;124865;1093;64245;-76
2021/06/26 10:08:16;;;;;;;11.53;10.60;;;;;;;21.41;72.59;99088.09;124911;1093;64315;-78
2021/06/26 10:10:44;;;;;;;12.10;10.95;;;;;;;21.54;73.11;99093.02;124772;1093;64172;-78
2021/06/26 10:13:15;;;;;;;12.93;11.83;;;;;;;21.63;72.44;99081.13;124856;1093;64340;-78
2021/06/26 10:15:44;;;;;;;13.70;12.60;;;;;;;21.70;72.99;99082.14;124771;1092;64267;-78
2021/06/26 10:18:19;;;;;;;13.83;12.63;;;;;;;21.88;72.79;99075.64;124821;1093;64274;-78
2021/06/26 10:20:48;;;;;;;14.03;12.80;;;;;;;22.03;72.26;99073.07;124805;1093;64271;-78
2021/06/26 10:23:15;;;;;;;13.23;11.87;;;;;;;22.19;72.70;99073.04;124822;1092;64401;-78
2021/06/26 10:25:43;;;;;;;14.40;13.13;;;;;;;22.43;72.22;99066.66;124807;1093;64236;-78
2021/06/26 10:28:14;;;;;;;14.80;13.50;;;;;;;22.72;71.59;99066.02;124792;1093;64295;-78
2021/06/26 10:30:42;;;;;;;15.07;13.80;;;;;;;22.98;71.47;99071.13;124838;1093;64312;-78
2021/06/26 10:33:11;;;;;;;14.70;13.60;;;;;;;23.27;71.29;99063.27;124675;1093;64262;-78
2021/06/26 10:35:51;;;;;;;15.20;13.85;;;;;;;23.61;69.35;99073.68;124823;1093;64274;-78
2021/06/26 10:38:19;;;;;;;26.13;23.87;;;;;;;23.81;69.13;99072.16;124728;1093;64418;-78
2021/06/26 10:40:50;;;;;;;14.97;13.83;;;;;;;24.01;68.10;99072.47;124888;1093;64258;-79
2021/06/26 10:43:31;;;;;;;14.57;13.50;;;;;;;24.20;68.27;99075.66;124882;1093;64294;-77
2021/06/26 10:46:06;;;;;;;15.17;13.80;;;;;;;24.53;68.50;99070.66;124771;1093;64751;-77
2021/06/26 10:48:36;;;;;;;14.97;13.67;;;;;;;24.84;67.69;99070.39;124856;1093;64331;-78
2021/06/26 10:51:04;;;;;;;17.70;16.10;;;;;;;24.95;66.66;99069.88;124700;1093;64693;-78
2021/06/26 10:53:37;;;;;;;16.43;15.20;;;;;;;25.18;66.82;99061.55;124719;1093;64271;-78
2021/06/26 10:56:08;;;;;;;16.33;14.87;;;;;;;25.40;65.99;99058.80;124636;1093;64319;-77
2021/06/26 10:58:46;;;;;;;17.20;15.80;;;;;;;25.37;63.61;99062.77;124689;1093;64305;-79
2021/06/26 11:01:22;;;;;;;16.67;15.43;;;;;;;25.26;65.05;99057.85;124684;1093;64293;-78
2021/06/26 11:03:51;;;;;;;15.13;13.93;;;;;;;25.42;64.17;99055.89;124665;1093;64412;-78
2021/06/26 11:06:27;;;;;;;16.75;15.45;;;;;;;25.44;63.49;99059.28;124687;1093;64730;-79
2021/06/26 11:09:04;;;;;;;13.47;12.27;;;;;;;25.63;63.46;99053.13;124717;1093;64195;-77
2021/06/26 11:11:37;;;;;;;13.80;12.70;;;;;;;25.79;63.58;99054.70;124704;1093;64294;-77
2021/06/26 11:14:26;;;;;;;13.20;12.23;;;;;;;25.92;63.38;99056.72;124722;1093;64287;-78
2021/06/26 11:16:55;;;;;;;14.53;13.40;;;;;;;25.99;63.41;99061.18;124719;1093;64310;-78
2021/06/26 11:19:34;;;;;;;13.00;11.93;;;;;;;25.96;62.83;99066.18;124754;1093;64393;-79